sensor_id;sensor_type;location;lat;lon;timestamp;P1;durP1;ratioP1;P2;durP2;ratioP2
8702;SDS011;9002;42.708;23.186;2023-07-20T00:01:26;6.83;;;3.40;;
8702;SDS011;9002;42.708;23.186;2023-07-20T00:03:52;6.93;;;3.33;;
8702;SDS011;9002;42.708;23.186;2023-07-20T00:06:21;5.17;;;3.27;;
8702;SDS011;9002;42.708;23.186;2023-07-20T00:08:47;6.73;;;3.30;;
8702;SDS011;9002;42.708;23.186;2023-07-20T00:11:15;8.70;;;3.97;;
8702;SDS011;9002;42.708;23.186;2023-07-20T00:13:42;6.80;;;3.70;;
8702;SDS011;9002;42.708;23.186;2023-07-20T00:16:09;6.77;;;3.53;;
8702;SDS011;9002;42.708;23.186;2023-07-20T00:18:36;7.77;;;3.33;;
8702;SDS011;9002;42.708;23.186;2023-07-20T00:21:03;7.80;;;3.60;;
8702;SDS011;9002;42.708;23.186;2023-07-20T00:23:30;8.07;;;3.30;;
8702;SDS011;9002;42.708;23.186;2023-07-20T00:25:56;7.40;;;3.40;;
8702;SDS011;9002;42.708;23.186;2023-07-20T00:28:25;8.13;;;3.50;;
8702;SDS011;9002;42.708;23.186;2023-07-20T00:30:51;9.93;;;3.30;;
8702;SDS011;9002;42.708;23.186;2023-07-20T00:33:18;9.30;;;3.63;;
8702;SDS011;9002;42.708;23.186;2023-07-20T00:35:45;6.53;;;3.40;;
8702;SDS011;9002;42.708;23.186;2023-07-20T00:38:11;7.80;;;3.33;;
8702;SDS011;9002;42.708;23.186;2023-07-20T00:40:42;6.47;;;3.33;;
8702;SDS011;9002;42.708;23.186;2023-07-20T00:43:08;8.50;;;3.00;;
8702;SDS011;9002;42.708;23.186;2023-07-20T00:45:36;7.97;;;3.47;;
8702;SDS011;9002;42.708;23.186;2023-07-20T00:48:04;6.90;;;3.33;;
8702;SDS011;9002;42.708;23.186;2023-07-20T00:50:33;8.57;;;3.60;;
8702;SDS011;9002;42.708;23.186;2023-07-20T00:53:00;7.87;;;3.40;;
8702;SDS011;9002;42.708;23.186;2023-07-20T00:55:30;8.60;;;3.70;;
8702;SDS011;9002;42.708;23.186;2023-07-20T00:57:56;5.77;;;3.00;;
8702;SDS011;9002;42.708;23.186;2023-07-20T01:00:24;7.93;;;3.47;;
8702;SDS011;9002;42.708;23.186;2023-07-20T01:02:52;7.57;;;3.60;;
8702;SDS011;9002;42.708;23.186;2023-07-20T01:05:18;11.40;;;3.60;;
8702;SDS011;9002;42.708;23.186;2023-07-20T01:07:49;8.17;;;2.90;;
8702;SDS011;9002;42.708;23.186;2023-07-20T01:10:25;9.17;;;2.83;;
8702;SDS011;9002;42.708;23.186;2023-07-20T01:12:57;9.27;;;4.30;;
8702;SDS011;9002;42.708;23.186;2023-07-20T01:15:26;8.47;;;3.53;;
8702;SDS011;9002;42.708;23.186;2023-07-20T01:17:54;8.63;;;3.67;;
8702;SDS011;9002;42.708;23.186;2023-07-20T01:20:21;7.70;;;3.27;;
8702;SDS011;9002;42.708;23.186;2023-07-20T01:22:57;6.50;;;3.40;;
8702;SDS011;9002;42.708;23.186;2023-07-20T01:25:44;6.07;;;2.70;;
8702;SDS011;9002;42.708;23.186;2023-07-20T01:31:46;4.73;;;3.03;;
8702;SDS011;9002;42.708;23.186;2023-07-20T01:34:17;6.17;;;3.27;;
8702;SDS011;9002;42.708;23.186;2023-07-20T01:36:45;6.77;;;3.40;;
8702;SDS011;9002;42.708;23.186;2023-07-20T01:39:14;7.33;;;3.10;;
8702;SDS011;9002;42.708;23.186;2023-07-20T01:41:42;7.60;;;3.37;;
8702;SDS011;9002;42.708;23.186;2023-07-20T01:44:09;8.37;;;5.27;;
8702;SDS011;9002;42.708;23.186;2023-07-20T01:46:35;6.07;;;3.77;;
8702;SDS011;9002;42.708;23.186;2023-07-20T01:49:03;8.60;;;4.00;;
8702;SDS011;9002;42.708;23.186;2023-07-20T01:51:30;5.90;;;3.63;;
8702;SDS011;9002;42.708;23.186;2023-07-20T01:53:57;8.73;;;4.07;;
8702;SDS011;9002;42.708;23.186;2023-07-20T01:56:25;8.50;;;3.90;;
8702;SDS011;9002;42.708;23.186;2023-07-20T01:58:51;5.87;;;3.70;;
8702;SDS011;9002;42.708;23.186;2023-07-20T02:01:18;6.33;;;3.63;;
8702;SDS011;9002;42.708;23.186;2023-07-20T02:03:45;5.93;;;3.30;;
8702;SDS011;9002;42.708;23.186;2023-07-20T02:06:13;5.80;;;3.50;;
8702;SDS011;9002;42.708;23.186;2023-07-20T02:08:40;8.43;;;3.67;;
8702;SDS011;9002;42.708;23.186;2023-07-20T02:11:06;7.90;;;3.77;;
8702;SDS011;9002;42.708;23.186;2023-07-20T02:13:35;8.83;;;3.60;;
8702;SDS011;9002;42.708;23.186;2023-07-20T02:16:01;7.10;;;3.83;;
8702;SDS011;9002;42.708;23.186;2023-07-20T02:18:28;7.30;;;3.13;;
8702;SDS011;9002;42.708;23.186;2023-07-20T02:20:55;6.20;;;3.40;;
8702;SDS011;9002;42.708;23.186;2023-07-20T02:23:24;8.20;;;3.40;;
8702;SDS011;9002;42.708;23.186;2023-07-20T02:25:50;9.33;;;4.17;;
8702;SDS011;9002;42.708;23.186;2023-07-20T02:28:17;11.20;;;3.97;;
8702;SDS011;9002;42.708;23.186;2023-07-20T02:30:44;8.97;;;3.97;;
8702;SDS011;9002;42.708;23.186;2023-07-20T02:33:11;6.20;;;4.00;;
8702;SDS011;9002;42.708;23.186;2023-07-20T02:35:38;7.80;;;3.53;;
8702;SDS011;9002;42.708;23.186;2023-07-20T02:38:06;7.77;;;3.57;;
8702;SDS011;9002;42.708;23.186;2023-07-20T02:40:34;7.53;;;3.70;;
8702;SDS011;9002;42.708;23.186;2023-07-20T02:43:01;5.67;;;3.50;;
8702;SDS011;9002;42.708;23.186;2023-07-20T02:45:28;8.07;;;3.67;;
8702;SDS011;9002;42.708;23.186;2023-07-20T02:47:55;6.83;;;3.57;;
8702;SDS011;9002;42.708;23.186;2023-07-20T02:50:22;11.37;;;3.50;;
8702;SDS011;9002;42.708;23.186;2023-07-20T02:52:49;7.27;;;4.20;;
8702;SDS011;9002;42.708;23.186;2023-07-20T02:55:16;12.53;;;4.90;;
8702;SDS011;9002;42.708;23.186;2023-07-20T02:57:44;6.47;;;3.73;;
8702;SDS011;9002;42.708;23.186;2023-07-20T03:00:11;7.77;;;3.87;;
8702;SDS011;9002;42.708;23.186;2023-07-20T03:02:42;10.87;;;3.80;;
8702;SDS011;9002;42.708;23.186;2023-07-20T03:05:12;7.03;;;3.73;;
8702;SDS011;9002;42.708;23.186;2023-07-20T03:07:39;9.77;;;4.40;;
8702;SDS011;9002;42.708;23.186;2023-07-20T03:10:08;7.10;;;4.07;;
8702;SDS011;9002;42.708;23.186;2023-07-20T03:12:36;11.60;;;4.20;;
8702;SDS011;9002;42.708;23.186;2023-07-20T03:15:04;8.97;;;3.60;;
8702;SDS011;9002;42.708;23.186;2023-07-20T03:17:32;8.03;;;3.40;;
8702;SDS011;9002;42.708;23.186;2023-07-20T03:19:59;11.17;;;4.63;;
8702;SDS011;9002;42.708;23.186;2023-07-20T03:22:27;6.03;;;3.50;;
8702;SDS011;9002;42.708;23.186;2023-07-20T03:24:54;5.93;;;3.83;;
8702;SDS011;9002;42.708;23.186;2023-07-20T03:27:21;12.33;;;3.80;;
8702;SDS011;9002;42.708;23.186;2023-07-20T03:29:48;11.23;;;4.63;;
8702;SDS011;9002;42.708;23.186;2023-07-20T03:32:16;7.37;;;3.87;;
8702;SDS011;9002;42.708;23.186;2023-07-20T03:34:43;9.23;;;3.87;;
8702;SDS011;9002;42.708;23.186;2023-07-20T03:37:10;8.47;;;4.10;;
8702;SDS011;9002;42.708;23.186;2023-07-20T03:39:37;8.80;;;4.00;;
8702;SDS011;9002;42.708;23.186;2023-07-20T03:42:04;11.13;;;4.00;;
8702;SDS011;9002;42.708;23.186;2023-07-20T03:44:31;8.00;;;3.80;;
8702;SDS011;9002;42.708;23.186;2023-07-20T03:46:58;9.97;;;4.20;;
8702;SDS011;9002;42.708;23.186;2023-07-20T03:49:27;6.83;;;3.53;;
8702;SDS011;9002;42.708;23.186;2023-07-20T03:51:54;6.70;;;4.37;;
8702;SDS011;9002;42.708;23.186;2023-07-20T03:54:20;10.00;;;4.23;;
8702;SDS011;9002;42.708;23.186;2023-07-20T03:59:16;11.27;;;4.40;;
8702;SDS011;9002;42.708;23.186;2023-07-20T04:01:43;8.60;;;4.33;;
8702;SDS011;9002;42.708;23.186;2023-07-20T04:04:09;8.60;;;4.27;;
8702;SDS011;9002;42.708;23.186;2023-07-20T04:06:38;9.07;;;4.10;;
8702;SDS011;9002;42.708;23.186;2023-07-20T04:09:04;9.63;;;4.00;;
8702;SDS011;9002;42.708;23.186;2023-07-20T04:11:31;7.53;;;4.17;;
8702;SDS011;9002;42.708;23.186;2023-07-20T04:13:59;10.53;;;4.43;;
8702;SDS011;9002;42.708;23.186;2023-07-20T04:16:26;9.13;;;4.40;;
8702;SDS011;9002;42.708;23.186;2023-07-20T04:18:54;10.40;;;5.17;;
8702;SDS011;9002;42.708;23.186;2023-07-20T04:21:21;7.60;;;4.83;;
8702;SDS011;9002;42.708;23.186;2023-07-20T04:23:49;6.73;;;4.13;;
8702;SDS011;9002;42.708;23.186;2023-07-20T04:26:16;8.50;;;4.63;;
8702;SDS011;9002;42.708;23.186;2023-07-20T04:28:43;12.77;;;4.60;;
8702;SDS011;9002;42.708;23.186;2023-07-20T04:31:10;8.50;;;3.80;;
8702;SDS011;9002;42.708;23.186;2023-07-20T04:33:37;7.67;;;4.40;;
8702;SDS011;9002;42.708;23.186;2023-07-20T04:36:04;10.73;;;4.87;;
8702;SDS011;9002;42.708;23.186;2023-07-20T04:38:31;10.60;;;4.50;;
8702;SDS011;9002;42.708;23.186;2023-07-20T04:40:59;7.33;;;4.27;;
8702;SDS011;9002;42.708;23.186;2023-07-20T04:43:29;8.93;;;4.43;;
8702;SDS011;9002;42.708;23.186;2023-07-20T04:45:56;8.80;;;4.70;;
8702;SDS011;9002;42.708;23.186;2023-07-20T04:48:23;9.17;;;4.80;;
8702;SDS011;9002;42.708;23.186;2023-07-20T04:50:50;9.13;;;4.40;;
8702;SDS011;9002;42.708;23.186;2023-07-20T04:53:17;13.63;;;5.17;;
8702;SDS011;9002;42.708;23.186;2023-07-20T04:55:47;12.37;;;5.63;;
8702;SDS011;9002;42.708;23.186;2023-07-20T04:58:18;11.87;;;5.17;;
8702;SDS011;9002;42.708;23.186;2023-07-20T05:00:45;7.80;;;4.90;;
8702;SDS011;9002;42.708;23.186;2023-07-20T05:03:12;11.67;;;5.27;;
8702;SDS011;9002;42.708;23.186;2023-07-20T05:05:39;9.10;;;4.90;;
8702;SDS011;9002;42.708;23.186;2023-07-20T05:08:06;8.87;;;4.67;;
8702;SDS011;9002;42.708;23.186;2023-07-20T05:10:33;8.67;;;4.77;;
8702;SDS011;9002;42.708;23.186;2023-07-20T05:13:00;11.87;;;5.57;;
8702;SDS011;9002;42.708;23.186;2023-07-20T05:15:28;8.40;;;4.30;;
8702;SDS011;9002;42.708;23.186;2023-07-20T05:17:55;10.77;;;5.20;;
8702;SDS011;9002;42.708;23.186;2023-07-20T05:20:21;8.60;;;4.30;;
8702;SDS011;9002;42.708;23.186;2023-07-20T05:22:48;12.43;;;4.67;;
8702;SDS011;9002;42.708;23.186;2023-07-20T05:25:15;9.13;;;4.43;;
8702;SDS011;9002;42.708;23.186;2023-07-20T05:27:43;8.10;;;4.40;;
8702;SDS011;9002;42.708;23.186;2023-07-20T05:30:11;13.67;;;5.13;;
8702;SDS011;9002;42.708;23.186;2023-07-20T05:32:39;11.07;;;4.50;;
8702;SDS011;9002;42.708;23.186;2023-07-20T05:35:07;9.70;;;4.10;;
8702;SDS011;9002;42.708;23.186;2023-07-20T05:37:36;10.10;;;4.40;;
8702;SDS011;9002;42.708;23.186;2023-07-20T05:42:56;8.70;;;4.07;;
8702;SDS011;9002;42.708;23.186;2023-07-20T05:45:24;9.57;;;4.23;;
8702;SDS011;9002;42.708;23.186;2023-07-20T05:47:52;9.80;;;4.10;;
8702;SDS011;9002;42.708;23.186;2023-07-20T05:50:19;9.83;;;4.50;;
8702;SDS011;9002;42.708;23.186;2023-07-20T05:52:45;11.10;;;4.60;;
8702;SDS011;9002;42.708;23.186;2023-07-20T05:55:13;10.77;;;4.97;;
8702;SDS011;9002;42.708;23.186;2023-07-20T05:57:40;7.67;;;4.97;;
8702;SDS011;9002;42.708;23.186;2023-07-20T06:00:08;10.80;;;5.20;;
8702;SDS011;9002;42.708;23.186;2023-07-20T06:02:37;12.43;;;6.07;;
8702;SDS011;9002;42.708;23.186;2023-07-20T06:05:06;11.17;;;5.77;;
8702;SDS011;9002;42.708;23.186;2023-07-20T06:07:34;9.73;;;5.00;;
8702;SDS011;9002;42.708;23.186;2023-07-20T06:10:01;12.97;;;6.40;;
8702;SDS011;9002;42.708;23.186;2023-07-20T06:12:28;13.40;;;6.00;;
8702;SDS011;9002;42.708;23.186;2023-07-20T06:14:55;9.70;;;5.97;;
8702;SDS011;9002;42.708;23.186;2023-07-20T06:17:22;11.20;;;5.27;;
8702;SDS011;9002;42.708;23.186;2023-07-20T06:19:48;12.17;;;5.70;;
8702;SDS011;9002;42.708;23.186;2023-07-20T06:22:19;9.73;;;5.93;;
8702;SDS011;9002;42.708;23.186;2023-07-20T06:24:46;10.70;;;5.83;;
8702;SDS011;9002;42.708;23.186;2023-07-20T06:27:34;11.13;;;5.70;;
8702;SDS011;9002;42.708;23.186;2023-07-20T06:30:01;11.47;;;5.83;;
8702;SDS011;9002;42.708;23.186;2023-07-20T06:32:28;9.03;;;5.53;;
8702;SDS011;9002;42.708;23.186;2023-07-20T06:34:55;11.30;;;5.80;;
8702;SDS011;9002;42.708;23.186;2023-07-20T06:37:23;11.50;;;5.83;;
8702;SDS011;9002;42.708;23.186;2023-07-20T06:39:50;10.33;;;6.17;;
8702;SDS011;9002;42.708;23.186;2023-07-20T06:42:17;12.67;;;5.67;;
8702;SDS011;9002;42.708;23.186;2023-07-20T06:44:44;10.87;;;5.80;;
8702;SDS011;9002;42.708;23.186;2023-07-20T06:47:11;9.50;;;6.30;;
8702;SDS011;9002;42.708;23.186;2023-07-20T06:49:38;9.73;;;5.93;;
8702;SDS011;9002;42.708;23.186;2023-07-20T06:52:06;12.93;;;5.90;;
8702;SDS011;9002;42.708;23.186;2023-07-20T06:54:34;10.13;;;5.50;;
8702;SDS011;9002;42.708;23.186;2023-07-20T06:57:01;13.33;;;6.67;;
8702;SDS011;9002;42.708;23.186;2023-07-20T06:59:28;13.20;;;6.40;;
8702;SDS011;9002;42.708;23.186;2023-07-20T07:01:54;14.93;;;6.90;;
8702;SDS011;9002;42.708;23.186;2023-07-20T07:04:21;13.63;;;7.20;;
8702;SDS011;9002;42.708;23.186;2023-07-20T07:06:48;16.73;;;8.10;;
8702;SDS011;9002;42.708;23.186;2023-07-20T07:09:14;17.30;;;7.70;;
8702;SDS011;9002;42.708;23.186;2023-07-20T07:11:42;9.93;;;6.70;;
8702;SDS011;9002;42.708;23.186;2023-07-20T07:14:09;11.57;;;7.07;;
8702;SDS011;9002;42.708;23.186;2023-07-20T07:16:38;18.77;;;7.00;;
8702;SDS011;9002;42.708;23.186;2023-07-20T07:19:05;11.70;;;5.57;;
8702;SDS011;9002;42.708;23.186;2023-07-20T07:21:32;10.33;;;5.67;;
8702;SDS011;9002;42.708;23.186;2023-07-20T07:23:59;14.00;;;6.03;;
8702;SDS011;9002;42.708;23.186;2023-07-20T07:26:26;12.13;;;5.73;;
8702;SDS011;9002;42.708;23.186;2023-07-20T07:28:54;14.77;;;6.27;;
8702;SDS011;9002;42.708;23.186;2023-07-20T07:31:21;15.37;;;5.93;;
8702;SDS011;9002;42.708;23.186;2023-07-20T07:33:48;13.43;;;6.53;;
8702;SDS011;9002;42.708;23.186;2023-07-20T07:36:15;14.13;;;7.93;;
8702;SDS011;9002;42.708;23.186;2023-07-20T07:38:41;12.13;;;6.53;;
8702;SDS011;9002;42.708;23.186;2023-07-20T07:41:08;13.43;;;6.17;;
8702;SDS011;9002;42.708;23.186;2023-07-20T07:43:38;10.87;;;6.90;;
8702;SDS011;9002;42.708;23.186;2023-07-20T07:46:06;10.03;;;5.83;;
8702;SDS011;9002;42.708;23.186;2023-07-20T07:48:33;14.63;;;5.97;;
8702;SDS011;9002;42.708;23.186;2023-07-20T07:50:59;11.13;;;6.03;;
8702;SDS011;9002;42.708;23.186;2023-07-20T07:53:26;12.17;;;7.10;;
8702;SDS011;9002;42.708;23.186;2023-07-20T07:55:53;9.30;;;5.53;;
8702;SDS011;9002;42.708;23.186;2023-07-20T07:58:20;13.93;;;5.63;;
8702;SDS011;9002;42.708;23.186;2023-07-20T08:00:47;9.10;;;5.50;;
8702;SDS011;9002;42.708;23.186;2023-07-20T08:03:15;9.90;;;5.73;;
8702;SDS011;9002;42.708;23.186;2023-07-20T08:05:42;11.00;;;5.50;;
8702;SDS011;9002;42.708;23.186;2023-07-20T08:08:09;13.20;;;5.60;;
8702;SDS011;9002;42.708;23.186;2023-07-20T08:10:35;9.37;;;4.90;;
8702;SDS011;9002;42.708;23.186;2023-07-20T08:13:02;9.07;;;5.37;;
8702;SDS011;9002;42.708;23.186;2023-07-20T08:15:29;15.03;;;5.37;;
8702;SDS011;9002;42.708;23.186;2023-07-20T08:17:55;10.73;;;5.10;;
8702;SDS011;9002;42.708;23.186;2023-07-20T08:20:23;10.23;;;5.20;;
8702;SDS011;9002;42.708;23.186;2023-07-20T08:22:51;17.37;;;10.90;;
8702;SDS011;9002;42.708;23.186;2023-07-20T08:25:19;10.70;;;4.97;;
8702;SDS011;9002;42.708;23.186;2023-07-20T08:27:46;11.23;;;5.90;;
8702;SDS011;9002;42.708;23.186;2023-07-20T08:30:26;7.83;;;4.83;;
8702;SDS011;9002;42.708;23.186;2023-07-20T08:32:52;13.60;;;4.60;;
8702;SDS011;9002;42.708;23.186;2023-07-20T08:35:19;13.93;;;4.77;;
8702;SDS011;9002;42.708;23.186;2023-07-20T08:37:47;7.37;;;3.70;;
8702;SDS011;9002;42.708;23.186;2023-07-20T08:40:14;7.50;;;3.90;;
8702;SDS011;9002;42.708;23.186;2023-07-20T08:42:41;11.90;;;4.97;;
8702;SDS011;9002;42.708;23.186;2023-07-20T08:45:08;9.20;;;4.30;;
8702;SDS011;9002;42.708;23.186;2023-07-20T08:47:36;10.40;;;5.43;;
8702;SDS011;9002;42.708;23.186;2023-07-20T08:50:03;10.27;;;4.20;;
8702;SDS011;9002;42.708;23.186;2023-07-20T08:52:34;12.83;;;5.37;;
8702;SDS011;9002;42.708;23.186;2023-07-20T08:55:03;10.37;;;3.80;;
8702;SDS011;9002;42.708;23.186;2023-07-20T08:57:30;8.07;;;4.27;;
8702;SDS011;9002;42.708;23.186;2023-07-20T08:59:59;10.27;;;4.50;;
8702;SDS011;9002;42.708;23.186;2023-07-20T09:02:29;9.90;;;4.10;;
8702;SDS011;9002;42.708;23.186;2023-07-20T09:05:01;7.60;;;4.17;;
8702;SDS011;9002;42.708;23.186;2023-07-20T09:07:29;7.43;;;3.87;;
8702;SDS011;9002;42.708;23.186;2023-07-20T09:09:57;7.37;;;3.93;;
8702;SDS011;9002;42.708;23.186;2023-07-20T09:12:25;8.10;;;3.53;;
8702;SDS011;9002;42.708;23.186;2023-07-20T09:14:52;7.43;;;3.80;;
8702;SDS011;9002;42.708;23.186;2023-07-20T09:17:18;10.13;;;4.00;;
8702;SDS011;9002;42.708;23.186;2023-07-20T09:19:45;8.37;;;4.00;;
8702;SDS011;9002;42.708;23.186;2023-07-20T09:22:13;6.20;;;3.63;;
8702;SDS011;9002;42.708;23.186;2023-07-20T09:24:40;10.47;;;3.77;;
8702;SDS011;9002;42.708;23.186;2023-07-20T09:27:07;8.30;;;4.10;;
8702;SDS011;9002;42.708;23.186;2023-07-20T09:29:40;9.10;;;4.27;;
8702;SDS011;9002;42.708;23.186;2023-07-20T09:32:14;10.47;;;4.03;;
8702;SDS011;9002;42.708;23.186;2023-07-20T09:34:47;10.57;;;4.00;;
8702;SDS011;9002;42.708;23.186;2023-07-20T09:37:19;8.73;;;3.50;;
8702;SDS011;9002;42.708;23.186;2023-07-20T09:39:47;8.07;;;3.80;;
8702;SDS011;9002;42.708;23.186;2023-07-20T09:42:14;8.27;;;3.97;;
8702;SDS011;9002;42.708;23.186;2023-07-20T09:44:44;8.03;;;3.70;;
8702;SDS011;9002;42.708;23.186;2023-07-20T09:47:11;8.97;;;3.70;;
8702;SDS011;9002;42.708;23.186;2023-07-20T09:49:39;7.70;;;3.50;;
8702;SDS011;9002;42.708;23.186;2023-07-20T09:52:06;10.43;;;3.70;;
8702;SDS011;9002;42.708;23.186;2023-07-20T09:54:34;5.50;;;3.70;;
8702;SDS011;9002;42.708;23.186;2023-07-20T09:57:03;6.27;;;3.13;;
8702;SDS011;9002;42.708;23.186;2023-07-20T09:59:32;7.60;;;3.70;;
8702;SDS011;9002;42.708;23.186;2023-07-20T10:04:41;6.10;;;3.60;;
8702;SDS011;9002;42.708;23.186;2023-07-20T10:07:10;7.90;;;3.00;;
8702;SDS011;9002;42.708;23.186;2023-07-20T10:09:39;5.97;;;3.70;;
8702;SDS011;9002;42.708;23.186;2023-07-20T10:12:06;7.00;;;3.60;;
8702;SDS011;9002;42.708;23.186;2023-07-20T10:14:35;6.23;;;3.40;;
8702;SDS011;9002;42.708;23.186;2023-07-20T10:17:07;7.33;;;3.20;;
8702;SDS011;9002;42.708;23.186;2023-07-20T10:19:39;9.00;;;3.20;;
8702;SDS011;9002;42.708;23.186;2023-07-20T10:22:14;6.20;;;3.87;;
8702;SDS011;9002;42.708;23.186;2023-07-20T10:24:44;7.23;;;3.13;;
8702;SDS011;9002;42.708;23.186;2023-07-20T10:27:12;7.00;;;3.10;;
8702;SDS011;9002;42.708;23.186;2023-07-20T10:29:39;6.27;;;3.30;;
8702;SDS011;9002;42.708;23.186;2023-07-20T10:32:07;6.17;;;3.10;;
8702;SDS011;9002;42.708;23.186;2023-07-20T10:34:35;6.53;;;3.30;;
8702;SDS011;9002;42.708;23.186;2023-07-20T10:39:33;6.20;;;3.50;;
8702;SDS011;9002;42.708;23.186;2023-07-20T10:42:00;7.27;;;3.10;;
8702;SDS011;9002;42.708;23.186;2023-07-20T10:44:28;7.43;;;3.17;;
8702;SDS011;9002;42.708;23.186;2023-07-20T10:46:58;6.80;;;3.00;;
8702;SDS011;9002;42.708;23.186;2023-07-20T10:49:26;7.80;;;4.10;;
8702;SDS011;9002;42.708;23.186;2023-07-20T10:51:56;10.73;;;6.47;;
8702;SDS011;9002;42.708;23.186;2023-07-20T10:54:35;10.37;;;4.77;;
8702;SDS011;9002;42.708;23.186;2023-07-20T10:57:23;8.10;;;3.63;;
8702;SDS011;9002;42.708;23.186;2023-07-20T11:00:09;9.10;;;5.47;;
8702;SDS011;9002;42.708;23.186;2023-07-20T11:02:44;7.97;;;3.83;;
8702;SDS011;9002;42.708;23.186;2023-07-20T11:08:09;6.20;;;3.77;;
8702;SDS011;9002;42.708;23.186;2023-07-20T11:10:39;6.53;;;3.33;;
8702;SDS011;9002;42.708;23.186;2023-07-20T11:13:15;8.77;;;3.30;;
8702;SDS011;9002;42.708;23.186;2023-07-20T11:15:46;9.87;;;3.60;;
8702;SDS011;9002;42.708;23.186;2023-07-20T11:18:14;4.40;;;3.30;;
8702;SDS011;9002;42.708;23.186;2023-07-20T11:20:41;9.70;;;3.87;;
8702;SDS011;9002;42.708;23.186;2023-07-20T11:23:08;9.77;;;3.87;;
8702;SDS011;9002;42.708;23.186;2023-07-20T11:25:40;10.07;;;3.77;;
8702;SDS011;9002;42.708;23.186;2023-07-20T11:28:07;5.80;;;3.30;;
8702;SDS011;9002;42.708;23.186;2023-07-20T11:30:36;6.27;;;3.23;;
8702;SDS011;9002;42.708;23.186;2023-07-20T11:33:03;6.33;;;3.57;;
8702;SDS011;9002;42.708;23.186;2023-07-20T11:35:30;8.17;;;4.00;;
8702;SDS011;9002;42.708;23.186;2023-07-20T11:37:56;5.67;;;3.67;;
8702;SDS011;9002;42.708;23.186;2023-07-20T11:40:23;8.13;;;4.43;;
8702;SDS011;9002;42.708;23.186;2023-07-20T11:42:51;6.53;;;4.10;;
8702;SDS011;9002;42.708;23.186;2023-07-20T11:45:19;5.90;;;4.33;;
8702;SDS011;9002;42.708;23.186;2023-07-20T11:47:46;8.40;;;4.73;;
8702;SDS011;9002;42.708;23.186;2023-07-20T11:50:13;8.70;;;4.30;;
8702;SDS011;9002;42.708;23.186;2023-07-20T11:52:39;8.40;;;4.80;;
8702;SDS011;9002;42.708;23.186;2023-07-20T11:55:07;10.87;;;4.97;;
8702;SDS011;9002;42.708;23.186;2023-07-20T11:57:34;7.00;;;4.87;;
8702;SDS011;9002;42.708;23.186;2023-07-20T12:00:02;9.33;;;4.97;;
8702;SDS011;9002;42.708;23.186;2023-07-20T12:02:34;7.20;;;4.77;;
8702;SDS011;9002;42.708;23.186;2023-07-20T12:05:02;9.03;;;4.43;;
8702;SDS011;9002;42.708;23.186;2023-07-20T12:07:29;8.53;;;5.33;;
8702;SDS011;9002;42.708;23.186;2023-07-20T12:10:05;8.57;;;4.40;;
8702;SDS011;9002;42.708;23.186;2023-07-20T12:12:33;9.90;;;4.53;;
8702;SDS011;9002;42.708;23.186;2023-07-20T12:15:19;7.33;;;4.40;;
8702;SDS011;9002;42.708;23.186;2023-07-20T12:17:51;7.67;;;4.43;;
8702;SDS011;9002;42.708;23.186;2023-07-20T12:20:26;8.40;;;4.40;;
8702;SDS011;9002;42.708;23.186;2023-07-20T12:22:55;6.43;;;4.00;;
8702;SDS011;9002;42.708;23.186;2023-07-20T12:25:23;8.60;;;4.20;;
8702;SDS011;9002;42.708;23.186;2023-07-20T12:27:59;8.23;;;4.33;;
8702;SDS011;9002;42.708;23.186;2023-07-20T12:30:28;6.73;;;4.00;;
8702;SDS011;9002;42.708;23.186;2023-07-20T12:32:55;5.40;;;3.80;;
8702;SDS011;9002;42.708;23.186;2023-07-20T12:35:22;10.20;;;4.10;;
8702;SDS011;9002;42.708;23.186;2023-07-20T12:37:49;10.43;;;3.77;;
8702;SDS011;9002;42.708;23.186;2023-07-20T12:40:16;8.60;;;4.37;;
8702;SDS011;9002;42.708;23.186;2023-07-20T12:42:43;8.53;;;4.10;;
8702;SDS011;9002;42.708;23.186;2023-07-20T12:45:10;7.43;;;4.17;;
8702;SDS011;9002;42.708;23.186;2023-07-20T12:47:40;6.67;;;3.87;;
8702;SDS011;9002;42.708;23.186;2023-07-20T12:50:08;7.40;;;3.87;;
8702;SDS011;9002;42.708;23.186;2023-07-20T12:52:35;11.53;;;3.97;;
8702;SDS011;9002;42.708;23.186;2023-07-20T12:55:03;10.37;;;4.27;;
8702;SDS011;9002;42.708;23.186;2023-07-20T12:57:30;6.83;;;3.53;;
8702;SDS011;9002;42.708;23.186;2023-07-20T12:59:56;7.63;;;3.80;;
8702;SDS011;9002;42.708;23.186;2023-07-20T13:02:23;6.57;;;3.73;;
8702;SDS011;9002;42.708;23.186;2023-07-20T13:04:51;9.77;;;4.20;;
8702;SDS011;9002;42.708;23.186;2023-07-20T13:07:22;7.60;;;4.20;;
8702;SDS011;9002;42.708;23.186;2023-07-20T13:09:57;9.87;;;4.47;;
8702;SDS011;9002;42.708;23.186;2023-07-20T13:12:25;8.40;;;4.10;;
8702;SDS011;9002;42.708;23.186;2023-07-20T13:14:52;7.67;;;3.43;;
8702;SDS011;9002;42.708;23.186;2023-07-20T13:17:19;6.77;;;4.20;;
8702;SDS011;9002;42.708;23.186;2023-07-20T13:19:46;7.33;;;3.77;;
8702;SDS011;9002;42.708;23.186;2023-07-20T13:22:14;9.20;;;4.67;;
8702;SDS011;9002;42.708;23.186;2023-07-20T13:24:41;5.07;;;3.70;;
8702;SDS011;9002;42.708;23.186;2023-07-20T13:27:07;8.53;;;4.27;;
8702;SDS011;9002;42.708;23.186;2023-07-20T13:29:34;7.97;;;3.60;;
8702;SDS011;9002;42.708;23.186;2023-07-20T13:32:01;8.13;;;3.50;;
8702;SDS011;9002;42.708;23.186;2023-07-20T13:34:29;7.50;;;3.30;;
8702;SDS011;9002;42.708;23.186;2023-07-20T13:36:56;4.87;;;3.57;;
8702;SDS011;9002;42.708;23.186;2023-07-20T13:39:25;6.23;;;3.33;;
8702;SDS011;9002;42.708;23.186;2023-07-20T13:41:52;6.17;;;3.70;;
8702;SDS011;9002;42.708;23.186;2023-07-20T13:44:19;9.67;;;3.67;;
8702;SDS011;9002;42.708;23.186;2023-07-20T13:46:46;7.50;;;3.70;;
8702;SDS011;9002;42.708;23.186;2023-07-20T13:49:13;9.37;;;4.00;;
8702;SDS011;9002;42.708;23.186;2023-07-20T13:54:07;9.17;;;4.10;;
8702;SDS011;9002;42.708;23.186;2023-07-20T13:56:35;7.77;;;3.63;;
8702;SDS011;9002;42.708;23.186;2023-07-20T13:59:02;7.17;;;3.83;;
8702;SDS011;9002;42.708;23.186;2023-07-20T14:01:29;9.87;;;4.10;;
8702;SDS011;9002;42.708;23.186;2023-07-20T14:03:58;8.53;;;4.03;;
8702;SDS011;9002;42.708;23.186;2023-07-20T14:06:25;9.00;;;3.83;;
8702;SDS011;9002;42.708;23.186;2023-07-20T14:08:52;10.13;;;3.47;;
8702;SDS011;9002;42.708;23.186;2023-07-20T14:11:19;8.57;;;3.93;;
8702;SDS011;9002;42.708;23.186;2023-07-20T14:13:47;6.43;;;3.10;;
8702;SDS011;9002;42.708;23.186;2023-07-20T14:16:14;11.93;;;3.63;;
8702;SDS011;9002;42.708;23.186;2023-07-20T14:18:41;10.80;;;3.70;;
8702;SDS011;9002;42.708;23.186;2023-07-20T14:21:07;5.83;;;3.43;;
8702;SDS011;9002;42.708;23.186;2023-07-20T14:23:34;7.77;;;3.90;;
8702;SDS011;9002;42.708;23.186;2023-07-20T14:26:01;6.97;;;3.73;;
8702;SDS011;9002;42.708;23.186;2023-07-20T14:28:30;9.47;;;3.67;;
8702;SDS011;9002;42.708;23.186;2023-07-20T14:30:58;7.33;;;3.50;;
8702;SDS011;9002;42.708;23.186;2023-07-20T14:33:25;5.70;;;3.47;;
8702;SDS011;9002;42.708;23.186;2023-07-20T14:35:52;8.73;;;4.00;;
8702;SDS011;9002;42.708;23.186;2023-07-20T14:38:18;6.50;;;3.90;;
8702;SDS011;9002;42.708;23.186;2023-07-20T14:40:45;7.23;;;3.20;;
8702;SDS011;9002;42.708;23.186;2023-07-20T14:43:12;6.57;;;3.50;;
8702;SDS011;9002;42.708;23.186;2023-07-20T14:45:40;10.10;;;3.93;;
8702;SDS011;9002;42.708;23.186;2023-07-20T14:48:14;10.10;;;3.83;;
8702;SDS011;9002;42.708;23.186;2023-07-20T14:50:53;5.47;;;3.90;;
8702;SDS011;9002;42.708;23.186;2023-07-20T14:53:24;10.70;;;5.30;;
8702;SDS011;9002;42.708;23.186;2023-07-20T14:55:57;7.20;;;3.90;;
8702;SDS011;9002;42.708;23.186;2023-07-20T14:58:25;9.47;;;3.20;;
8702;SDS011;9002;42.708;23.186;2023-07-20T15:00:51;5.90;;;3.53;;
8702;SDS011;9002;42.708;23.186;2023-07-20T15:03:19;6.60;;;3.40;;
8702;SDS011;9002;42.708;23.186;2023-07-20T15:05:46;5.20;;;3.20;;
8702;SDS011;9002;42.708;23.186;2023-07-20T15:08:13;6.83;;;3.67;;
8702;SDS011;9002;42.708;23.186;2023-07-20T15:10:40;8.70;;;3.83;;
8702;SDS011;9002;42.708;23.186;2023-07-20T15:13:09;8.80;;;3.70;;
8702;SDS011;9002;42.708;23.186;2023-07-20T15:15:36;7.13;;;3.50;;
8702;SDS011;9002;42.708;23.186;2023-07-20T15:18:03;9.30;;;4.10;;
8702;SDS011;9002;42.708;23.186;2023-07-20T15:20:31;6.00;;;3.47;;
8702;SDS011;9002;42.708;23.186;2023-07-20T15:22:58;6.43;;;4.10;;